Time;durP1;ratioP1;P1;durP2;ratioP2;P2;SDS_P1;SDS_P2;PMS_P1;PMS_P2;Temp;Humidity;BMP_temperature;BMP_pressure;BME280_temperature;BME280_humidity;BME280_pressure;Samples;Min_cycle;Max_cycle;Signal;HPM_P1;HPM_P2
2023/07/03 00:00:45;;;;;;;20.67;15.73;;;16.30;99.90;;;;;;4995680;28;20180;-85
2023/07/03 00:03:13;;;;;;;23.13;13.90;;;16.30;99.90;;;;;;4996001;28;20037;-86
2023/07/03 00:05:43;;;;;;;25.52;15.25;;;16.30;99.90;;;;;;4979476;28;20049;-85
2023/07/03 00:08:17;;;;;;;20.30;15.10;;;16.20;99.90;;;;;;4979319;28;20042;-85
2023/07/03 00:10:43;;;;;;;22.08;15.45;;;16.30;99.90;;;;;;4979011;28;20104;-85
2023/07/03 00:13:09;;;;;;;17.00;12.90;;;16.20;99.90;;;;;;4995364;28;20049;-85
2023/07/03 00:15:35;;;;;;;21.55;19.27;;;16.20;99.90;;;;;;4979512;28;20496;-85
2023/07/03 00:18:01;;;;;;;20.65;18.48;;;16.20;99.90;;;;;;5013107;28;20082;-85
2023/07/03 00:20:27;;;;;;;23.48;17.35;;;16.20;99.90;;;;;;4979066;28;20142;-85
2023/07/03 00:22:54;;;;;;;23.40;17.05;;;16.20;99.90;;;;;;5013382;28;20042;-85
2023/07/03 00:25:20;;;;;;;24.65;17.05;;;16.20;99.90;;;;;;4994955;28;20041;-85
2023/07/03 00:27:47;;;;;;;24.55;14.95;;;16.20;99.90;;;;;;4979225;28;20099;-85
2023/07/03 00:30:13;;;;;;;21.17;17.45;;;16.10;99.90;;;;;;4994899;28;20048;-85
2023/07/03 00:32:39;;;;;;;20.02;15.35;;;16.10;99.90;;;;;;4979064;28;20046;-85
2023/07/03 00:35:06;;;;;;;22.65;17.08;;;16.20;99.90;;;;;;4978532;28;20498;-85
2023/07/03 00:37:32;;;;;;;21.30;18.63;;;16.00;99.90;;;;;;4995010;28;20081;-85
2023/07/03 00:39:58;;;;;;;23.95;18.88;;;16.00;99.90;;;;;;4994668;28;20080;-85
2023/07/03 00:42:29;;;;;;;26.23;19.17;;;16.00;99.90;;;;;;4995258;28;20066;-85
2023/07/03 00:44:55;;;;;;;26.60;23.38;;;16.00;99.90;;;;;;4994947;28;20030;-85
2023/07/03 00:47:23;;;;;;;26.25;19.02;;;16.00;99.90;;;;;;4994744;28;20135;-84
2023/07/03 00:49:50;;;;;;;24.67;21.77;;;16.00;99.90;;;;;;4978144;28;20046;-85
2023/07/03 00:52:16;;;;;;;23.52;18.13;;;16.00;99.90;;;;;;5012299;28;20049;-85
2023/07/03 00:54:42;;;;;;;25.90;23.55;;;16.00;99.90;;;;;;4994484;28;20034;-86
2023/07/03 00:57:12;;;;;;;19.35;17.00;;;16.00;99.90;;;;;;4993667;28;20061;-85
2023/07/03 00:59:38;;;;;;;25.70;21.63;;;15.90;99.90;;;;;;5012407;28;20281;-85
2023/07/03 01:02:13;;;;;;;22.80;20.42;;;15.90;99.90;;;;;;4994624;28;20408;-86
2023/07/03 01:04:54;;;;;;;25.30;21.75;;;15.90;99.90;;;;;;4994952;28;20034;-86
2023/07/03 01:07:25;;;;;;;24.02;20.00;;;15.90;99.90;;;;;;5012413;28;20504;-86
2023/07/03 01:10:01;;;;;;;24.50;21.15;;;15.90;99.90;;;;;;4978265;28;20508;-85
2023/07/03 01:12:30;;;;;;;29.20;26.08;;;15.80;99.90;;;;;;4994443;28;20133;-85
2023/07/03 01:15:00;;;;;;;28.80;25.77;;;15.90;99.90;;;;;;4977926;28;20172;-86
2023/07/03 01:17:29;;;;;;;27.92;25.13;;;15.90;99.90;;;;;;4977388;28;20181;-86
2023/07/03 01:19:56;;;;;;;27.67;25.00;;;15.90;99.90;;;;;;4994478;28;20541;-85
2023/07/03 01:22:36;;;;;;;29.65;26.73;;;15.90;99.90;;;;;;4994066;28;20065;-86
2023/07/03 01:25:08;;;;;;;32.45;25.58;;;15.90;99.90;;;;;;4993585;28;20046;-85
2023/07/03 01:27:38;;;;;;;27.27;24.42;;;15.90;99.90;;;;;;4977833;28;20042;-85
2023/07/03 01:30:11;;;;;;;22.33;19.52;;;15.90;99.90;;;;;;4977426;28;20030;-85
2023/07/03 01:32:38;;;;;;;24.10;19.65;;;16.00;99.90;;;;;;4993659;28;20049;-85
2023/07/03 01:35:06;;;;;;;31.63;28.73;;;16.00;99.90;;;;;;5010847;28;20121;-86
2023/07/03 01:37:34;;;;;;;25.77;23.15;;;16.00;99.90;;;;;;4994014;28;20053;-85
2023/07/03 01:40:01;;;;;;;31.75;28.90;;;16.00;99.90;;;;;;4993863;28;20048;-86
2023/07/03 01:42:30;;;;;;;27.60;24.52;;;16.00;99.90;;;;;;4993524;28;20041;-86
2023/07/03 01:44:55;;;;;;;27.52;24.67;;;16.10;99.90;;;;;;4993807;28;20069;-86
2023/07/03 01:47:21;;;;;;;32.20;29.30;;;16.00;99.90;;;;;;4993458;28;20135;-86
2023/07/03 01:49:48;;;;;;;23.70;20.85;;;16.00;99.90;;;;;;4993550;28;20485;-85
2023/07/03 01:52:16;;;;;;;27.77;25.30;;;16.10;99.90;;;;;;4976801;28;20046;-85
2023/07/03 01:54:59;;;;;;;27.05;24.65;;;16.10;99.90;;;;;;5011305;28;20045;-86
2023/07/03 01:57:37;;;;;;;37.13;33.90;;;16.10;99.90;;;;;;5011395;28;20048;-85
2023/07/03 02:00:05;;;;;;;31.42;28.70;;;16.10;99.90;;;;;;4977503;28;20038;-85
2023/07/03 02:02:33;;;;;;;29.70;26.95;;;16.10;99.90;;;;;;4993054;28;20396;-86
2023/07/03 02:05:12;;;;;;;32.20;29.20;;;16.10;99.90;;;;;;4977567;28;20057;-85
2023/07/03 02:07:40;;;;;;;30.73;27.92;;;16.10;99.90;;;;;;4976710;28;20041;-85
2023/07/03 02:10:06;;;;;;;29.63;26.35;;;16.10;99.90;;;;;;4993375;28;20049;-85
2023/07/03 02:12:32;;;;;;;30.08;27.35;;;16.10;99.90;;;;;;4993928;28;20037;-85
2023/07/03 02:15:02;;;;;;;25.80;23.20;;;16.10;99.90;;;;;;4976788;28;20030;-85
2023/07/03 02:17:28;;;;;;;28.73;26.15;;;16.10;99.90;;;;;;4977202;28;20033;-85
2023/07/03 02:19:54;;;;;;;27.30;22.00;;;16.10;99.90;;;;;;4993383;28;20170;-85
2023/07/03 02:22:20;;;;;;;32.42;29.58;;;16.10;99.90;;;;;;4993110;28;20034;-85
2023/07/03 02:24:46;;;;;;;25.83;23.52;;;16.10;99.90;;;;;;4993927;28;20121;-85
2023/07/03 02:27:12;;;;;;;35.03;32.05;;;16.10;99.90;;;;;;5010268;28;20046;-85
2023/07/03 02:29:37;;;;;;;28.73;25.98;;;16.10;99.90;;;;;;5010884;28;20049;-85
2023/07/03 02:32:08;;;;;;;25.00;22.52;;;16.20;99.90;;;;;;5010903;28;20491;-85
2023/07/03 02:34:34;;;;;;;24.20;21.65;;;16.10;99.90;;;;;;4976909;28;20073;-85
2023/07/03 02:37:00;;;;;;;31.13;28.02;;;16.10;99.90;;;;;;4992713;28;20143;-85
2023/07/03 02:39:26;;;;;;;26.98;24.60;;;16.10;99.90;;;;;;4992959;28;20041;-85
2023/07/03 02:41:51;;;;;;;27.25;24.50;;;16.00;99.90;;;;;;4976550;28;20040;-85
2023/07/03 02:44:17;;;;;;;23.73;21.67;;;16.00;99.90;;;;;;4976665;28;20129;-85
2023/07/03 02:46:43;;;;;;;31.88;29.38;;;15.90;99.90;;;;;;4993000;28;20056;-85
2023/07/03 02:49:08;;;;;;;30.20;27.75;;;15.90;99.90;;;;;;4992867;28;20140;-85
2023/07/03 02:51:34;;;;;;;30.63;27.90;;;15.90;99.90;;;;;;4976356;28;20503;-85
2023/07/03 02:54:00;;;;;;;27.08;24.42;;;15.80;99.90;;;;;;4992742;28;20408;-85
2023/07/03 02:56:25;;;;;;;26.58;22.65;;;15.90;99.90;;;;;;4976666;28;20488;-84
2023/07/03 02:58:51;;;;;;;26.45;24.00;;;15.80;99.90;;;;;;4992050;28;20048;-85
2023/07/03 03:01:16;;;;;;;23.25;18.80;;;15.70;99.90;;;;;;4992936;28;20469;-85
2023/07/03 03:03:44;;;;;;;25.33;22.80;;;15.60;99.90;;;;;;5010031;28;20022;-85
2023/07/03 03:06:10;;;;;;;21.42;18.73;;;15.50;99.90;;;;;;4992628;28;20038;-85
2023/07/03 03:08:36;;;;;;;27.90;25.40;;;15.50;99.90;;;;;;4992251;28;20042;-86
2023/07/03 03:11:03;;;;;;;27.60;25.02;;;15.40;99.90;;;;;;4976060;28;20054;-85
2023/07/03 03:13:28;;;;;;;29.00;26.42;;;15.40;99.90;;;;;;4975705;28;20171;-85
2023/07/03 03:15:54;;;;;;;27.45;24.83;;;15.40;99.90;;;;;;4992138;28;20409;-84
2023/07/03 03:18:21;;;;;;;27.98;25.33;;;15.30;99.90;;;;;;5009802;28;20553;-85
2023/07/03 03:20:46;;;;;;;18.35;16.55;;;15.50;99.90;;;;;;4981534;28;20124;-85
2023/07/03 03:23:13;;;;;;;18.65;14.00;;;15.20;99.90;;;;;;5017258;28;20145;-85
2023/07/03 03:25:38;;;;;;;21.65;19.55;;;15.10;99.90;;;;;;4999303;28;20037;-85
2023/07/03 03:28:05;;;;;;;20.63;18.65;;;15.10;99.90;;;;;;5015942;28;20045;-85
2023/07/03 03:30:32;;;;;;;16.63;12.82;;;15.00;99.90;;;;;;4999065;28;20073;-85
2023/07/03 03:32:58;;;;;;;15.63;11.40;;;14.90;99.90;;;;;;4998970;28;20492;-85
2023/07/03 03:35:24;;;;;;;18.15;12.68;;;14.90;99.90;;;;;;4983140;28;20385;-86
2023/07/03 03:37:50;;;;;;;14.05;10.35;;;14.80;99.90;;;;;;4983012;28;20065;-86
2023/07/03 03:40:15;;;;;;;16.60;11.95;;;14.80;99.90;;;;;;4982636;28;20045;-86
2023/07/03 03:42:41;;;;;;;15.55;10.25;;;14.80;99.90;;;;;;4998459;28;20049;-85
2023/07/03 03:45:07;;;;;;;19.45;12.85;;;14.80;99.90;;;;;;4982180;28;20037;-86
2023/07/03 03:47:33;;;;;;;19.40;16.92;;;14.70;99.90;;;;;;4982453;28;20073;-85
2023/07/03 03:49:59;;;;;;;23.00;16.20;;;14.70;99.90;;;;;;5016235;28;20037;-85
2023/07/03 03:52:25;;;;;;;14.88;7.95;;;14.70;99.90;;;;;;4998661;28;20539;-85
2023/07/03 03:54:51;;;;;;;12.77;8.95;;;14.70;99.90;;;;;;5004521;28;20034;-86
2023/07/03 03:57:16;;;;;;;18.70;11.35;;;14.70;99.90;;;;;;5021015;28;20049;-86
2023/07/03 03:59:42;;;;;;;17.65;11.27;;;14.70;99.90;;;;;;4998752;28;20029;-86
2023/07/03 04:02:08;;;;;;;20.83;18.67;;;14.70;99.90;;;;;;5015673;28;20030;-85
2023/07/03 04:04:34;;;;;;;15.80;13.48;;;14.60;99.90;;;;;;5016545;28;20489;-86
2023/07/03 04:06:59;;;;;;;13.20;10.02;;;14.60;99.90;;;;;;4982766;28;20132;-86
2023/07/03 04:09:25;;;;;;;16.25;11.02;;;14.60;99.90;;;;;;4981790;28;20561;-85
2023/07/03 04:11:51;;;;;;;13.85;8.27;;;14.60;99.90;;;;;;4981259;28;20225;-84
2023/07/03 04:14:16;;;;;;;13.63;8.15;;;14.60;99.90;;;;;;4981400;28;20140;-85
2023/07/03 04:16:44;;;;;;;16.70;7.35;;;14.60;99.90;;;;;;4998050;28;20061;-85
2023/07/03 04:19:10;;;;;;;19.17;12.13;;;14.60;99.90;;;;;;4998241;28;20041;-85
2023/07/03 04:21:35;;;;;;;15.60;10.80;;;14.70;99.90;;;;;;4997951;28;20117;-85
2023/07/03 04:24:01;;;;;;;13.77;11.63;;;14.70;99.90;;;;;;5015759;28;20065;-85
2023/07/03 04:26:27;;;;;;;14.70;11.48;;;14.70;99.90;;;;;;4981092;28;20037;-83
2023/07/03 04:28:52;;;;;;;18.40;15.80;;;14.70;99.90;;;;;;4981556;28;20038;-84
2023/07/03 04:31:18;;;;;;;22.95;10.90;;;14.70;99.90;;;;;;4979353;28;20038;-83
2023/07/03 04:33:45;;;;;;;11.38;9.18;;;14.80;99.90;;;;;;4978398;28;20377;-85
2023/07/03 04:36:12;;;;;;;15.02;9.82;;;14.80;99.90;;;;;;4978902;28;20038;-84
2023/07/03 04:38:39;;;;;;;16.42;9.40;;;14.80;99.90;;;;;;4994159;28;20046;-85
2023/07/03 04:41:04;;;;;;;14.10;10.73;;;14.90;99.90;;;;;;4977350;28;20172;-85
2023/07/03 04:43:31;;;;;;;17.63;10.30;;;14.90;99.90;;;;;;4994880;28;20101;-85
2023/07/03 04:46:03;;;;;;;17.58;15.68;;;15.00;99.90;;;;;;5011776;28;20068;-85
2023/07/03 04:48:30;;;;;;;23.88;18.70;;;15.10;99.90;;;;;;4993881;28;20046;-85
2023/07/03 04:50:56;;;;;;;19.60;17.52;;;15.20;99.90;;;;;;4993793;28;20068;-85
2023/07/03 04:53:23;;;;;;;17.30;15.63;;;15.30;99.90;;;;;;5011323;28;20046;-85
2023/07/03 04:55:49;;;;;;;20.98;18.92;;;15.50;99.90;;;;;;4977411;28;20128;-84
2023/07/03 04:58:14;;;;;;;23.77;21.58;;;15.60;99.90;;;;;;4993646;28;20121;-84
2023/07/03 05:00:40;;;;;;;20.67;18.35;;;15.60;99.90;;;;;;4993770;28;20591;-85
2023/07/03 05:03:07;;;;;;;23.25;21.05;;;15.60;99.90;;;;;;4993934;28;20050;-84
2023/07/03 05:05:33;;;;;;;25.23;23.20;;;15.90;99.90;;;;;;4993802;28;20049;-85
2023/07/03 05:07:59;;;;;;;25.98;23.67;;;16.10;99.90;;;;;;4977604;28;20046;-84
2023/07/03 05:10:24;;;;;;;26.25;23.85;;;16.20;99.90;;;;;;4992833;28;20053;-84
2023/07/03 05:12:50;;;;;;;25.33;22.67;;;16.30;99.90;;;;;;4991714;28;20061;-85
2023/07/03 05:15:18;;;;;;;24.13;21.73;;;16.30;99.90;;;;;;4974146;28;20104;-84
2023/07/03 05:17:49;;;;;;;13.63;11.88;;;16.60;99.90;;;;;;4973834;28;20053;-84
2023/07/03 05:20:17;;;;;;;9.20;4.43;;;17.50;99.90;;;;;;4991283;28;20070;-84
2023/07/03 05:22:44;;;;;;;12.40;3.80;;;18.80;99.90;;;;;;4991145;28;20478;-84
2023/07/03 05:25:11;;;;;;;12.05;3.63;;;20.40;99.90;;;;;;4973541;28;20092;-85
2023/07/03 05:27:37;;;;;;;10.88;5.95;;;21.50;99.80;;;;;;4993298;28;20041;-85
2023/07/03 05:30:04;;;;;;;14.32;8.10;;;22.70;99.50;;;;;;4993208;28;20076;-86
2023/07/03 05:32:31;;;;;;;13.98;7.63;;;23.50;98.20;;;;;;4976867;28;20046;-85
2023/07/03 05:34:56;;;;;;;13.57;8.20;;;24.10;97.00;;;;;;4978438;28;20050;-85
2023/07/03 05:37:22;;;;;;;15.48;12.15;;;24.40;95.70;;;;;;4978422;28;20282;-85
2023/07/03 05:39:49;;;;;;;13.77;8.45;;;24.50;95.70;;;;;;5012764;28;20072;-85
2023/07/03 05:42:16;;;;;;;12.55;8.20;;;25.10;95.80;;;;;;4994663;28;20038;-86
2023/07/03 05:44:43;;;;;;;8.52;6.47;;;25.80;95.20;;;;;;5013743;28;20164;-86
2023/07/03 05:47:09;;;;;;;9.10;6.57;;;26.40;94.20;;;;;;4978212;28;20443;-86
2023/07/03 05:49:34;;;;;;;23.00;21.15;;;26.50;93.80;;;;;;4992931;28;20069;-86
2023/07/03 05:52:00;;;;;;;25.35;23.33;;;26.10;93.30;;;;;;4992954;28;20101;-85
2023/07/03 05:54:26;;;;;;;24.30;22.40;;;25.00;93.20;;;;;;4992396;28;20636;-85
2023/07/03 05:57:05;;;;;;;16.70;15.10;;;24.10;93.40;;;;;;4992868;28;20034;-85
2023/07/03 05:59:31;;;;;;;16.40;14.88;;;23.30;94.80;;;;;;4976564;28;20045;-85
2023/07/03 06:01:57;;;;;;;19.02;16.98;;;23.40;96.30;;;;;;4992415;28;20034;-86
2023/07/03 06:04:24;;;;;;;20.83;18.98;;;24.20;95.60;;;;;;4992812;28;20510;-85
2023/07/03 06:06:52;;;;;;;24.40;22.33;;;24.00;94.90;;;;;;4991795;28;20041;-86
2023/07/03 06:09:18;;;;;;;21.35;19.13;;;23.80;95.30;;;;;;5010413;28;20046;-85
2023/07/03 06:11:44;;;;;;;16.83;13.27;;;24.00;95.10;;;;;;4992243;28;20055;-85
2023/07/03 06:14:18;;;;;;;18.48;15.95;;;23.60;95.00;;;;;;4992591;28;20048;-85
2023/07/03 06:16:45;;;;;;;24.40;22.02;;;23.80;95.40;;;;;;4992342;28;20149;-86
2023/07/03 06:19:11;;;;;;;14.35;12.80;;;25.00;95.20;;;;;;5009926;28;20061;-85
2023/07/03 06:21:37;;;;;;;19.17;17.02;;;25.60;94.50;;;;;;4972265;28;20042;-85
2023/07/03 06:24:10;;;;;;;20.52;18.63;;;25.60;93.90;;;;;;4956638;28;20480;-86
2023/07/03 06:26:39;;;;;;;9.10;6.70;;;25.90;94.20;;;;;;4978476;28;20038;-86
2023/07/03 06:29:07;;;;;;;13.10;9.90;;;26.90;94.00;;;;;;5009532;28;20447;-86
2023/07/03 06:31:33;;;;;;;15.57;9.13;;;27.30;92.80;;;;;;4991861;28;20480;-86
2023/07/03 06:33:58;;;;;;;37.83;35.00;;;26.70;92.70;;;;;;4975881;28;20197;-86
2023/07/03 06:36:25;;;;;;;45.95;43.00;;;26.10;93.00;;;;;;4991824;28;20057;-85
2023/07/03 06:38:55;;;;;;;41.28;38.28;;;25.30;93.20;;;;;;4975666;28;20077;-85
2023/07/03 06:41:22;;;;;;;46.60;43.20;;;24.50;93.70;;;;;;4975733;28;20042;-85
2023/07/03 06:43:48;;;;;;;65.93;60.15;;;23.80;94.50;;;;;;5009344;28;20046;-84
2023/07/03 06:46:14;;;;;;;52.17;48.22;;;22.70;97.60;;;;;;4991130;28;20052;-84
2023/07/03 06:48:41;;;;;;;31.77;29.02;;;21.40;99.90;;;;;;4975257;28;20124;-84
2023/07/03 06:51:09;;;;;;;21.33;19.45;;;20.60;99.90;;;;;;4974991;28;20088;-84
2023/07/03 06:53:35;;;;;;;18.60;11.85;;;19.90;99.90;;;;;;4991242;28;20045;-85
2023/07/03 06:56:02;;;;;;;17.42;8.45;;;19.40;99.90;;;;;;4991418;28;20038;-84
2023/07/03 06:58:29;;;;;;;11.45;5.68;;;19.00;99.90;;;;;;4991484;28;20150;-84
2023/07/03 07:00:55;;;;;;;10.95;4.60;;;18.70;99.90;;;;;;4991682;28;20394;-85
2023/07/03 07:03:20;;;;;;;18.83;7.10;;;18.70;99.90;;;;;;4991446;28;20080;-85
2023/07/03 07:05:46;;;;;;;19.17;8.63;;;18.60;99.90;;;;;;4990915;28;20042;-85
2023/07/03 07:08:18;;;;;;;13.95;7.75;;;18.70;99.90;;;;;;4991455;28;20045;-85
2023/07/03 07:10:44;;;;;;;16.70;7.15;;;19.00;99.90;;;;;;4991278;28;20061;-86
2023/07/03 07:13:11;;;;;;;14.52;5.43;;;20.70;99.90;;;;;;4975108;28;20113;-85
2023/07/03 07:15:41;;;;;;;13.57;5.53;;;21.80;99.90;;;;;;4975278;28;20066;-85
2023/07/03 07:18:08;;;;;;;11.95;6.13;;;23.10;99.90;;;;;;4974718;28;20077;-86
2023/07/03 07:20:38;;;;;;;14.07;6.70;;;24.50;99.90;;;;;;4990868;28;20041;-85
2023/07/03 07:23:04;;;;;;;13.88;4.93;;;25.60;99.90;;;;;;4975300;28;20053;-86
2023/07/03 07:25:29;;;;;;;11.98;4.60;;;26.10;99.90;;;;;;4991571;28;20038;-86
2023/07/03 07:27:55;;;;;;;16.13;11.57;;;26.80;99.90;;;;;;4976033;28;20132;-86
2023/07/03 07:30:21;;;;;;;37.40;34.50;;;27.60;99.00;;;;;;4991745;28;20038;-87
2023/07/03 07:32:48;;;;;;;62.30;58.40;;;28.20;98.50;;;;;;4972202;28;20065;-87
2023/07/03 07:35:14;;;;;;;41.45;38.47;;;27.80;97.10;;;;;;4989001;28;20552;-87
2023/07/03 07:37:39;;;;;;;131.68;123.07;;;27.00;97.90;;;;;;4955861;28;20052;-87
2023/07/03 07:40:06;;;;;;;119.97;112.38;;;26.10;97.90;;;;;;4972171;28;20125;-86
2023/07/03 07:42:32;;;;;;;90.20;84.18;;;25.20;98.30;;;;;;4971733;28;20061;-86
2023/07/03 07:44:58;;;;;;;47.60;44.30;;;24.20;98.60;;;;;;4971507;28;20037;-86
2023/07/03 07:47:23;;;;;;;15.88;14.32;;;23.20;99.90;;;;;;4974075;28;20122;-85
2023/07/03 07:49:49;;;;;;;10.85;3.75;;;22.40;99.90;;;;;;5008086;28;20065;-86
2023/07/03 07:52:15;;;;;;;10.43;7.63;;;21.40;99.90;;;;;;5008575;28;20489;-86
2023/07/03 07:54:41;;;;;;;14.95;13.48;;;20.90;99.90;;;;;;4991118;28;20045;-86
2023/07/03 07:57:08;;;;;;;12.15;9.38;;;20.70;99.90;;;;;;4974875;28;20052;-85
2023/07/03 07:59:34;;;;;;;14.48;7.97;;;20.50;99.90;;;;;;4974951;28;20080;-86
2023/07/03 08:02:00;;;;;;;10.52;4.57;;;20.30;99.90;;;;;;4991134;28;20155;-86
2023/07/03 08:04:26;;;;;;;9.68;4.38;;;20.20;99.90;;;;;;5008447;28;20117;-86
2023/07/03 08:06:52;;;;;;;11.10;3.72;;;20.20;99.90;;;;;;4977648;28;20045;-86
2023/07/03 08:09:18;;;;;;;10.23;4.95;;;20.20;99.90;;;;;;5012032;28;20479;-85
2023/07/03 08:11:44;;;;;;;9.60;3.30;;;20.00;99.90;;;;;;4994412;28;20061;-85
2023/07/03 08:14:10;;;;;;;11.02;4.00;;;20.00;99.90;;;;;;4994637;28;20412;-86
2023/07/03 08:16:36;;;;;;;8.88;3.33;;;20.10;99.90;;;;;;4978134;28;20053;-85
2023/07/03 08:19:03;;;;;;;11.65;5.78;;;20.10;99.90;;;;;;4994456;28;20042;-86
2023/07/03 08:21:28;;;;;;;11.45;5.07;;;20.10;99.90;;;;;;4978761;28;20030;-86
2023/07/03 08:23:54;;;;;;;10.57;3.22;;;20.20;99.90;;;;;;4994948;28;20436;-86
2023/07/03 08:26:23;;;;;;;7.97;3.20;;;20.30;99.90;;;;;;4978670;28;20053;-87
2023/07/03 08:28:49;;;;;;;8.05;4.22;;;20.90;99.90;;;;;;4994623;28;20121;-87
2023/07/03 08:31:14;;;;;;;9.45;4.35;;;22.20;99.90;;;;;;4978060;28;20268;-86
2023/07/03 08:33:40;;;;;;;14.20;12.90;;;23.60;99.90;;;;;;5011425;28;20037;-87
2023/07/03 08:36:06;;;;;;;18.42;16.95;;;23.80;99.90;;;;;;4978171;28;20069;-86
2023/07/03 08:38:32;;;;;;;22.60;21.00;;;23.60;99.90;;;;;;4994087;28;20042;-86
2023/07/03 08:40:59;;;;;;;23.08;21.08;;;23.30;99.90;;;;;;4994485;28;20125;-86
2023/07/03 08:43:35;;;;;;;24.23;22.33;;;23.20;99.90;;;;;;4994526;28;20065;-87
2023/07/03 08:46:03;;;;;;;36.47;33.80;;;23.20;99.90;;;;;;4978110;28;20045;-87
2023/07/03 08:48:34;;;;;;;45.58;42.25;;;23.40;99.90;;;;;;4993971;28;20042;-86
2023/07/03 08:51:03;;;;;;;32.17;29.73;;;23.00;99.90;;;;;;4977811;28;20052;-86
2023/07/03 08:53:35;;;;;;;33.30;31.05;;;22.80;99.90;;;;;;4994035;28;20049;-86
2023/07/03 08:56:14;;;;;;;45.08;41.88;;;23.20;99.90;;;;;;4977603;28;20076;-86
2023/07/03 08:58:40;;;;;;;21.10;19.08;;;23.30;99.90;;;;;;5011305;28;20038;-86
2023/07/03 09:01:20;;;;;;;30.95;28.42;;;23.10;99.90;;;;;;4976635;28;20121;-86
2023/07/03 09:04:04;;;;;;;26.25;23.98;;;23.70;99.90;;;;;;4977600;28;20109;-86
2023/07/03 09:06:41;;;;;;;32.92;30.70;;;23.60;98.90;;;;;;5011054;28;20096;-86
2023/07/03 09:09:32;;;;;;;31.67;29.27;;;23.40;99.60;;;;;;4993834;28;20064;-87
2023/07/03 09:12:14;;;;;;;34.85;32.25;;;23.40;99.70;;;;;;4993199;28;20154;-86
2023/07/03 09:14:47;;;;;;;53.47;49.63;;;23.30;99.90;;;;;;4993444;28;20034;-86
2023/07/03 09:17:13;;;;;;;;;;;22.90;99.80;;;;;;4976536;28;20683;-86
2023/07/03 09:19:45;;;;;;;23.98;22.25;;;22.30;99.80;;;;;;4993502;28;19968;-86
2023/07/03 09:22:52;;;;;;;23.15;21.25;;;22.20;99.90;;;;;;4977125;28;20477;-86
2023/07/03 09:25:34;;;;;;;18.27;16.67;;;22.00;99.90;;;;;;4976349;28;20139;-85
2023/07/03 09:28:01;;;;;;;23.83;21.65;;;22.00;99.90;;;;;;4993266;28;20052;-85
2023/07/03 09:30:27;;;;;;;13.23;11.93;;;21.80;99.90;;;;;;4976108;28;20088;-85
2023/07/03 09:32:52;;;;;;;13.50;10.65;;;21.70;99.90;;;;;;4977163;28;20042;-86
2023/07/03 09:35:20;;;;;;;13.43;12.02;;;21.70;99.90;;;;;;4993380;28;20060;-86
2023/07/03 09:37:50;;;;;;;13.50;12.10;;;21.60;99.90;;;;;;4993143;28;20381;-85
2023/07/03 09:40:37;;;;;;;11.80;10.32;;;21.90;99.90;;;;;;4993825;28;20072;-86
2023/07/03 09:43:10;;;;;;;10.15;6.78;;;22.20;99.30;;;;;;4993277;28;20042;-86
2023/07/03 09:45:38;;;;;;;7.43;6.65;;;22.20;99.60;;;;;;4973544;28;20070;-86
2023/07/03 09:48:21;;;;;;;11.65;4.68;;;22.20;99.20;;;;;;4991240;28;20050;-85
2023/07/03 09:50:47;;;;;;;7.68;3.78;;;22.00;98.50;;;;;;4989656;28;20050;-86
2023/07/03 09:53:24;;;;;;;7.30;5.88;;;21.50;98.20;;;;;;4973858;28;20208;-86
2023/07/03 09:55:59;;;;;;;5.93;4.68;;;21.20;98.50;;;;;;4960935;28;20518;-87
2023/07/03 09:58:27;;;;;;;6.03;4.13;;;21.00;99.70;;;;;;4980592;28;20042;-86
2023/07/03 10:00:58;;;;;;;14.82;6.70;;;20.80;99.80;;;;;;4976098;28;20045;-85
2023/07/03 10:03:32;;;;;;;8.70;4.22;;;20.70;99.70;;;;;;4992883;28;20499;-86
2023/07/03 10:06:10;;;;;;;7.28;4.80;;;20.80;99.90;;;;;;4992620;28;20080;-85
2023/07/03 10:09:00;;;;;;;5.60;3.30;;;21.00;99.90;;;;;;5010508;28;20080;-86
2023/07/03 10:11:53;;;;;;;5.47;3.08;;;21.10;99.90;;;;;;4992055;28;20390;-86
2023/07/03 10:14:46;;;;;;;7.18;2.90;;;21.40;99.90;;;;;;4978903;28;20041;-86
2023/07/03 10:17:16;;;;;;;9.30;3.92;;;21.60;99.80;;;;;;4992811;28;20046;-85
2023/07/03 10:19:46;;;;;;;6.50;3.10;;;21.50;99.60;;;;;;4976334;28;20100;-86
2023/07/03 10:22:17;;;;;;;8.93;5.00;;;21.20;99.40;;;;;;5010162;28;20042;-85
2023/07/03 10:24:45;;;;;;;5.97;2.50;;;21.10;99.90;;;;;;4976656;28;20080;-85
2023/07/03 10:27:13;;;;;;;5.85;4.40;;;20.70;99.30;;;;;;4992900;28;20038;-86
2023/07/03 10:29:44;;;;;;;5.15;2.38;;;20.30;98.90;;;;;;4991208;28;20524;-86
2023/07/03 10:32:14;;;;;;;3.95;3.05;;;20.00;99.90;;;;;;4992535;28;20034;-85
2023/07/03 10:35:09;;;;;;;7.60;3.30;;;19.80;99.90;;;;;;4976151;28;20092;-86
2023/07/03 10:37:50;;;;;;;6.53;3.90;;;19.50;99.90;;;;;;4992689;28;20041;-86
2023/07/03 10:40:22;;;;;;;5.47;2.78;;;19.60;99.90;;;;;;4976236;28;20038;-85
2023/07/03 10:42:56;;;;;;;5.63;2.17;;;20.10;99.90;;;;;;4975850;28;20042;-86
2023/07/03 10:45:22;;;;;;;7.35;3.08;;;20.50;99.90;;;;;;4976102;28;20038;-86
2023/07/03 10:48:17;;;;;;;8.93;5.60;;;20.90;99.90;;;;;;4976003;28;20128;-86
2023/07/03 10:50:55;;;;;;;7.53;5.88;;;21.40;99.90;;;;;;4994800;28;20046;-86
2023/07/03 10:53:45;;;;;;;7.80;5.97;;;21.70;99.90;;;;;;4993536;28;20033;-86
2023/07/03 10:56:52;;;;;;;10.77;9.80;;;21.70;99.70;;;;;;4991980;28;20049;-86
2023/07/03 10:59:21;;;;;;;15.13;13.68;;;21.90;99.40;;;;;;4971413;28;20073;-86
2023/07/03 11:02:17;;;;;;;11.80;10.65;;;22.00;99.90;;;;;;4991937;28;20046;-85
2023/07/03 11:05:02;;;;;;;12.88;10.70;;;22.20;99.90;;;;;;4935817;28;20046;-86
2023/07/03 11:07:38;;;;;;;17.23;15.93;;;22.30;99.90;;;;;;4989844;28;20477;-86
2023/07/03 11:10:41;;;;;;;26.45;24.25;;;22.50;99.70;;;;;;4956061;28;20058;-85
2023/07/03 11:13:37;;;;;;;17.23;15.93;;;22.70;98.60;;;;;;4989736;28;20041;-85
2023/07/03 11:16:11;;;;;;;10.75;9.88;;;23.00;98.60;;;;;;4963385;28;20396;-86
2023/07/03 11:19:17;;;;;;;13.50;11.18;;;23.20;96.50;;;;;;4975610;28;20077;-86
2023/07/03 11:21:54;;;;;;;20.88;19.30;;;23.40;96.00;;;;;;4975632;28;20045;-86
2023/07/03 11:24:33;;;;;;;18.00;16.52;;;23.30;94.80;;;;;;4991561;28;20038;-85
2023/07/03 11:27:24;;;;;;;11.27;9.82;;;23.10;95.10;;;;;;4974621;28;20041;-85
2023/07/03 11:29:53;;;;;;;24.92;23.27;;;22.90;94.70;;;;;;4991684;28;20045;-85
2023/07/03 11:32:23;;;;;;;14.95;13.90;;;22.80;95.60;;;;;;4975248;28;20069;-85
2023/07/03 11:34:52;;;;;;;15.63;14.43;;;22.60;94.90;;;;;;4991802;28;20042;-85
2023/07/03 11:37:42;;;;;;;14.32;13.05;;;22.40;94.90;;;;;;4975672;28;20038;-85
2023/07/03 11:40:24;;;;;;;16.75;9.30;;;22.10;94.80;;;;;;4991882;28;20129;-84
2023/07/03 11:43:08;;;;;;;7.88;7.15;;;21.80;94.90;;;;;;5012468;28;20116;-85
2023/07/03 11:45:36;;;;;;;17.35;15.75;;;21.60;95.80;;;;;;4979223;28;20049;-85
2023/07/03 11:48:02;;;;;;;13.63;12.43;;;21.80;95.90;;;;;;4996043;28;20396;-85
2023/07/03 11:50:33;;;;;;;14.20;12.80;;;22.10;95.20;;;;;;5012793;28;20500;-85
2023/07/03 11:53:03;;;;;;;8.30;7.40;;;22.30;95.30;;;;;;4995543;28;20508;-86
2023/07/03 11:55:37;;;;;;;12.65;11.70;;;22.20;94.60;;;;;;4978413;28;20177;-86
2023/07/03 11:58:04;;;;;;;16.67;15.35;;;22.20;94.50;;;;;;4994320;28;20080;-86
2023/07/03 12:00:34;;;;;;;9.80;7.32;;;22.30;95.00;;;;;;4994930;28;20105;-85
2023/07/03 12:03:05;;;;;;;9.68;7.10;;;22.60;95.20;;;;;;4979115;28;20121;-85
2023/07/03 12:05:49;;;;;;;14.70;13.40;;;22.60;94.10;;;;;;4995426;28;20038;-85
2023/07/03 12:08:18;;;;;;;23.05;21.45;;;22.40;94.40;;;;;;4979337;28;20201;-86
2023/07/03 12:10:49;;;;;;;12.25;11.25;;;22.10;94.90;;;;;;4991387;28;20058;-86
2023/07/03 12:13:36;;;;;;;14.32;12.95;;;21.80;95.00;;;;;;4991733;28;20050;-86
2023/07/03 12:16:04;;;;;;;12.15;8.48;;;21.60;95.70;;;;;;4975576;28;20138;-86
2023/07/03 12:18:32;;;;;;;8.50;4.85;;;21.40;95.90;;;;;;4974966;28;20054;-85
2023/07/03 12:20:59;;;;;;;8.43;5.22;;;21.00;95.30;;;;;;4974854;28;20044;-85
2023/07/03 12:23:41;;;;;;;7.13;4.15;;;20.80;95.60;;;;;;4991155;28;20320;-85
2023/07/03 12:26:10;;;;;;;7.13;2.63;;;20.80;94.60;;;;;;4991541;28;20038;-85
2023/07/03 12:28:36;;;;;;;6.90;5.28;;;20.60;94.80;;;;;;4994631;28;20050;-86
2023/07/03 12:31:20;;;;;;;6.13;2.38;;;20.50;96.70;;;;;;4994422;28;20049;-88
2023/07/03 12:33:58;;;;;;;6.60;2.95;;;20.40;98.70;;;;;;4991521;28;20053;-87
2023/07/03 12:36:30;;;;;;;6.95;2.97;;;20.40;97.00;;;;;;4975388;28;20085;-87
2023/07/03 12:38:57;;;;;;;4.35;2.20;;;20.40;96.80;;;;;;4991625;28;20046;-87
2023/07/03 12:41:30;;;;;;;6.68;2.60;;;20.30;96.70;;;;;;4977085;28;20042;-87
2023/07/03 12:43:57;;;;;;;7.88;2.42;;;20.30;97.30;;;;;;4994455;28;20042;-86
2023/07/03 12:46:31;;;;;;;6.25;2.78;;;20.20;97.30;;;;;;4993178;28;20396;-87